sensor_id;sensor_type;location;lat;lon;timestamp;P1;durP1;ratioP1;P2;durP2;ratioP2
80247;SDS011;69560;52.206;21.018;2023-06-14T00:09:54;8.50;;;6.60;;
80247;SDS011;69560;52.206;21.018;2023-06-14T00:12:50;8.70;;;6.60;;
80247;SDS011;69560;52.206;21.018;2023-06-14T00:18:45;9.00;;;7.00;;
80247;SDS011;69560;52.206;21.018;2023-06-14T00:25:00;12.40;;;7.20;;
80247;SDS011;69560;52.206;21.018;2023-06-14T00:27:54;8.00;;;7.00;;
80247;SDS011;69560;52.206;21.018;2023-06-14T00:40:12;8.00;;;6.30;;
80247;SDS011;69560;52.206;21.018;2023-06-14T00:46:01;9.50;;;6.70;;
80247;SDS011;69560;52.206;21.018;2023-06-14T00:55:19;7.70;;;6.90;;
80247;SDS011;69560;52.206;21.018;2023-06-14T00:58:20;8.00;;;7.10;;
80247;SDS011;69560;52.206;21.018;2023-06-14T01:04:44;7.60;;;6.80;;
80247;SDS011;69560;52.206;21.018;2023-06-14T01:17:46;10.40;;;6.70;;
80247;SDS011;69560;52.206;21.018;2023-06-14T01:27:07;11.20;;;7.30;;
80247;SDS011;69560;52.206;21.018;2023-06-14T01:30:03;11.80;;;7.20;;
80247;SDS011;69560;52.206;21.018;2023-06-14T01:36:12;9.40;;;6.40;;
80247;SDS011;69560;52.206;21.018;2023-06-14T01:45:22;7.70;;;6.90;;
80247;SDS011;69560;52.206;21.018;2023-06-14T01:48:36;8.80;;;7.50;;
80247;SDS011;69560;52.206;21.018;2023-06-14T01:54:57;10.80;;;7.60;;
80247;SDS011;69560;52.206;21.018;2023-06-14T01:57:55;9.10;;;7.20;;
80247;SDS011;69560;52.206;21.018;2023-06-14T02:00:50;12.70;;;7.60;;
80247;SDS011;69560;52.206;21.018;2023-06-14T02:03:52;8.00;;;7.20;;
80247;SDS011;69560;52.206;21.018;2023-06-14T02:07:16;9.60;;;7.70;;
80247;SDS011;69560;52.206;21.018;2023-06-14T02:13:02;10.30;;;7.60;;
80247;SDS011;69560;52.206;21.018;2023-06-14T02:19:07;10.70;;;6.90;;
80247;SDS011;69560;52.206;21.018;2023-06-14T02:21:55;12.30;;;7.50;;
80247;SDS011;69560;52.206;21.018;2023-06-14T02:31:11;8.30;;;7.50;;
80247;SDS011;69560;52.206;21.018;2023-06-14T02:34:01;8.70;;;7.70;;
80247;SDS011;69560;52.206;21.018;2023-06-14T02:37:08;12.20;;;7.40;;
80247;SDS011;69560;52.206;21.018;2023-06-14T02:46:51;7.30;;;6.60;;
80247;SDS011;69560;52.206;21.018;2023-06-14T02:52:26;8.40;;;6.80;;
80247;SDS011;69560;52.206;21.018;2023-06-14T02:55:17;9.00;;;7.10;;
80247;SDS011;69560;52.206;21.018;2023-06-14T02:57:52;9.50;;;6.60;;
80247;SDS011;69560;52.206;21.018;2023-06-14T03:01:08;6.90;;;6.20;;
80247;SDS011;69560;52.206;21.018;2023-06-14T03:03:54;7.80;;;7.00;;
80247;SDS011;69560;52.206;21.018;2023-06-14T03:09:48;7.10;;;6.20;;
80247;SDS011;69560;52.206;21.018;2023-06-14T03:16:19;7.70;;;6.90;;
80247;SDS011;69560;52.206;21.018;2023-06-14T03:19:09;11.00;;;6.90;;
80247;SDS011;69560;52.206;21.018;2023-06-14T03:22:08;9.90;;;6.50;;
80247;SDS011;69560;52.206;21.018;2023-06-14T03:25:16;7.10;;;6.20;;
80247;SDS011;69560;52.206;21.018;2023-06-14T03:28:07;7.80;;;6.20;;
80247;SDS011;69560;52.206;21.018;2023-06-14T03:31:06;8.40;;;6.50;;
80247;SDS011;69560;52.206;21.018;2023-06-14T03:34:03;8.80;;;6.70;;
80247;SDS011;69560;52.206;21.018;2023-06-14T03:40:20;8.00;;;7.20;;
80247;SDS011;69560;52.206;21.018;2023-06-14T03:46:07;8.10;;;7.10;;
80247;SDS011;69560;52.206;21.018;2023-06-14T03:49:17;8.80;;;7.00;;
80247;SDS011;69560;52.206;21.018;2023-06-14T03:52:25;10.10;;;6.80;;
80247;SDS011;69560;52.206;21.018;2023-06-14T03:55:17;8.40;;;7.50;;
80247;SDS011;69560;52.206;21.018;2023-06-14T03:58:07;8.50;;;6.70;;
80247;SDS011;69560;52.206;21.018;2023-06-14T04:04:11;9.40;;;7.60;;
80247;SDS011;69560;52.206;21.018;2023-06-14T04:06:53;10.60;;;7.10;;
80247;SDS011;69560;52.206;21.018;2023-06-14T04:13:22;8.70;;;7.20;;
80247;SDS011;69560;52.206;21.018;2023-06-14T04:16:00;7.40;;;6.40;;
80247;SDS011;69560;52.206;21.018;2023-06-14T04:24:57;8.00;;;7.20;;
80247;SDS011;69560;52.206;21.018;2023-06-14T04:27:53;9.60;;;7.00;;
80247;SDS011;69560;52.206;21.018;2023-06-14T04:34:16;9.50;;;7.30;;
80247;SDS011;69560;52.206;21.018;2023-06-14T04:37:18;7.90;;;7.10;;
80247;SDS011;69560;52.206;21.018;2023-06-14T04:39:57;8.40;;;7.10;;
80247;SDS011;69560;52.206;21.018;2023-06-14T04:42:52;13.40;;;7.40;;
80247;SDS011;69560;52.206;21.018;2023-06-14T04:45:37;10.50;;;7.60;;
80247;SDS011;69560;52.206;21.018;2023-06-14T04:48:15;8.30;;;6.90;;
80247;SDS011;69560;52.206;21.018;2023-06-14T04:51:18;9.60;;;6.80;;
80247;SDS011;69560;52.206;21.018;2023-06-14T04:54:30;9.00;;;7.30;;
80247;SDS011;69560;52.206;21.018;2023-06-14T04:57:29;8.50;;;7.20;;
80247;SDS011;69560;52.206;21.018;2023-06-14T05:00:04;10.20;;;7.00;;
80247;SDS011;69560;52.206;21.018;2023-06-14T05:05:43;8.70;;;7.10;;
80247;SDS011;69560;52.206;21.018;2023-06-14T05:08:24;8.30;;;7.50;;
80247;SDS011;69560;52.206;21.018;2023-06-14T05:11:15;7.80;;;6.70;;
80247;SDS011;69560;52.206;21.018;2023-06-14T05:13:51;9.60;;;7.70;;
80247;SDS011;69560;52.206;21.018;2023-06-14T05:16:43;10.30;;;7.10;;
80247;SDS011;69560;52.206;21.018;2023-06-14T05:23:02;12.30;;;7.40;;
80247;SDS011;69560;52.206;21.018;2023-06-14T05:32:09;11.20;;;7.40;;
80247;SDS011;69560;52.206;21.018;2023-06-14T05:35:02;10.00;;;7.30;;
80247;SDS011;69560;52.206;21.018;2023-06-14T05:38:01;9.40;;;7.90;;
80247;SDS011;69560;52.206;21.018;2023-06-14T05:40:48;9.30;;;7.50;;
80247;SDS011;69560;52.206;21.018;2023-06-14T05:43:20;10.10;;;8.60;;
80247;SDS011;69560;52.206;21.018;2023-06-14T05:46:11;12.80;;;8.50;;
80247;SDS011;69560;52.206;21.018;2023-06-14T05:52:38;11.10;;;8.00;;
80247;SDS011;69560;52.206;21.018;2023-06-14T05:55:47;9.50;;;7.40;;
80247;SDS011;69560;52.206;21.018;2023-06-14T05:58:45;10.40;;;8.30;;
80247;SDS011;69560;52.206;21.018;2023-06-14T06:04:10;12.70;;;8.10;;
80247;SDS011;69560;52.206;21.018;2023-06-14T06:07:09;11.80;;;7.80;;
80247;SDS011;69560;52.206;21.018;2023-06-14T06:09:49;9.00;;;8.10;;
80247;SDS011;69560;52.206;21.018;2023-06-14T06:12:59;10.60;;;8.20;;
80247;SDS011;69560;52.206;21.018;2023-06-14T06:15:59;9.50;;;8.10;;
80247;SDS011;69560;52.206;21.018;2023-06-14T06:18:59;12.40;;;8.30;;
80247;SDS011;69560;52.206;21.018;2023-06-14T06:27:59;12.70;;;7.90;;
80247;SDS011;69560;52.206;21.018;2023-06-14T06:42:46;14.00;;;8.70;;
80247;SDS011;69560;52.206;21.018;2023-06-14T06:49:11;11.00;;;8.80;;
80247;SDS011;69560;52.206;21.018;2023-06-14T06:52:04;10.70;;;7.90;;
80247;SDS011;69560;52.206;21.018;2023-06-14T06:54:43;11.60;;;8.60;;
80247;SDS011;69560;52.206;21.018;2023-06-14T06:57:26;11.20;;;8.20;;
80247;SDS011;69560;52.206;21.018;2023-06-14T07:06:23;11.40;;;8.20;;
80247;SDS011;69560;52.206;21.018;2023-06-14T07:09:19;12.00;;;8.30;;
80247;SDS011;69560;52.206;21.018;2023-06-14T07:12:21;10.60;;;8.20;;
80247;SDS011;69560;52.206;21.018;2023-06-14T07:18:00;17.30;;;8.70;;
80247;SDS011;69560;52.206;21.018;2023-06-14T07:23:41;11.80;;;7.80;;
80247;SDS011;69560;52.206;21.018;2023-06-14T07:26:43;15.30;;;8.00;;
80247;SDS011;69560;52.206;21.018;2023-06-14T07:29:30;14.70;;;8.30;;
80247;SDS011;69560;52.206;21.018;2023-06-14T07:32:19;11.80;;;8.00;;
80247;SDS011;69560;52.206;21.018;2023-06-14T07:35:06;15.90;;;8.80;;
80247;SDS011;69560;52.206;21.018;2023-06-14T07:37:39;9.20;;;8.30;;
80247;SDS011;69560;52.206;21.018;2023-06-14T07:43:07;14.60;;;8.20;;
80247;SDS011;69560;52.206;21.018;2023-06-14T07:45:41;12.20;;;8.30;;
80247;SDS011;69560;52.206;21.018;2023-06-14T07:48:23;11.80;;;7.90;;
80247;SDS011;69560;52.206;21.018;2023-06-14T07:51:17;16.10;;;7.70;;
80247;SDS011;69560;52.206;21.018;2023-06-14T07:54:16;10.50;;;7.60;;
80247;SDS011;69560;52.206;21.018;2023-06-14T07:57:14;7.70;;;6.80;;
80247;SDS011;69560;52.206;21.018;2023-06-14T07:59:49;12.40;;;6.90;;
80247;SDS011;69560;52.206;21.018;2023-06-14T08:02:30;8.00;;;6.70;;
80247;SDS011;69560;52.206;21.018;2023-06-14T08:05:21;9.80;;;6.70;;
80247;SDS011;69560;52.206;21.018;2023-06-14T08:07:47;9.20;;;7.20;;
80247;SDS011;69560;52.206;21.018;2023-06-14T08:10:17;8.80;;;7.00;;
80247;SDS011;69560;52.206;21.018;2023-06-14T08:12:44;13.10;;;7.00;;
80247;SDS011;69560;52.206;21.018;2023-06-14T08:15:21;7.70;;;6.70;;
80247;SDS011;69560;52.206;21.018;2023-06-14T08:17:54;8.10;;;7.00;;
80247;SDS011;69560;52.206;21.018;2023-06-14T08:23:32;8.40;;;7.50;;
80247;SDS011;69560;52.206;21.018;2023-06-14T08:26:05;12.50;;;8.40;;
80247;SDS011;69560;52.206;21.018;2023-06-14T08:28:40;10.80;;;8.10;;
80247;SDS011;69560;52.206;21.018;2023-06-14T08:31:27;11.10;;;7.40;;
80247;SDS011;69560;52.206;21.018;2023-06-14T08:34:11;13.60;;;8.00;;
80247;SDS011;69560;52.206;21.018;2023-06-14T08:36:55;10.70;;;8.00;;
80247;SDS011;69560;52.206;21.018;2023-06-14T08:39:39;10.40;;;7.70;;
80247;SDS011;69560;52.206;21.018;2023-06-14T08:42:14;11.20;;;8.50;;
80247;SDS011;69560;52.206;21.018;2023-06-14T08:45:06;13.70;;;7.80;;
80247;SDS011;69560;52.206;21.018;2023-06-14T08:47:44;11.60;;;7.90;;
80247;SDS011;69560;52.206;21.018;2023-06-14T08:53:35;10.50;;;8.70;;
80247;SDS011;69560;52.206;21.018;2023-06-14T08:56:38;14.90;;;10.10;;
80247;SDS011;69560;52.206;21.018;2023-06-14T08:59:23;10.20;;;9.00;;
80247;SDS011;69560;52.206;21.018;2023-06-14T09:02:14;10.90;;;8.20;;
80247;SDS011;69560;52.206;21.018;2023-06-14T09:05:09;10.70;;;7.60;;
80247;SDS011;69560;52.206;21.018;2023-06-14T09:08:01;8.90;;;7.00;;
80247;SDS011;69560;52.206;21.018;2023-06-14T09:10:35;8.70;;;7.20;;
80247;SDS011;69560;52.206;21.018;2023-06-14T09:13:27;9.50;;;7.30;;
80247;SDS011;69560;52.206;21.018;2023-06-14T09:16:12;13.40;;;7.80;;
80247;SDS011;69560;52.206;21.018;2023-06-14T09:18:46;10.80;;;6.20;;
80247;SDS011;69560;52.206;21.018;2023-06-14T09:21:16;10.70;;;6.70;;
80247;SDS011;69560;52.206;21.018;2023-06-14T09:30:28;14.30;;;7.90;;
80247;SDS011;69560;52.206;21.018;2023-06-14T09:36:27;7.70;;;6.90;;
80247;SDS011;69560;52.206;21.018;2023-06-14T09:39:00;13.30;;;7.50;;
80247;SDS011;69560;52.206;21.018;2023-06-14T09:41:36;10.00;;;7.50;;
80247;SDS011;69560;52.206;21.018;2023-06-14T09:44:19;13.70;;;9.40;;
80247;SDS011;69560;52.206;21.018;2023-06-14T09:47:02;29.80;;;26.60;;
80247;SDS011;69560;52.206;21.018;2023-06-14T09:49:38;25.90;;;20.50;;
80247;SDS011;69560;52.206;21.018;2023-06-14T09:52:17;12.40;;;9.70;;
80247;SDS011;69560;52.206;21.018;2023-06-14T09:54:48;14.30;;;6.70;;
80247;SDS011;69560;52.206;21.018;2023-06-14T09:57:16;6.80;;;5.90;;
80247;SDS011;69560;52.206;21.018;2023-06-14T10:02:48;5.50;;;4.90;;
80247;SDS011;69560;52.206;21.018;2023-06-14T10:05:35;7.50;;;5.60;;
80247;SDS011;69560;52.206;21.018;2023-06-14T10:11:12;8.90;;;5.50;;
80247;SDS011;69560;52.206;21.018;2023-06-14T10:13:55;8.40;;;5.00;;
80247;SDS011;69560;52.206;21.018;2023-06-14T10:16:39;10.10;;;6.30;;
80247;SDS011;69560;52.206;21.018;2023-06-14T10:19:44;10.50;;;5.80;;
80247;SDS011;69560;52.206;21.018;2023-06-14T10:22:32;8.50;;;5.00;;
80247;SDS011;69560;52.206;21.018;2023-06-14T10:25:13;8.50;;;5.40;;
80247;SDS011;69560;52.206;21.018;2023-06-14T10:31:08;7.80;;;5.20;;
80247;SDS011;69560;52.206;21.018;2023-06-14T10:34:04;6.90;;;5.40;;
80247;SDS011;69560;52.206;21.018;2023-06-14T10:36:34;7.70;;;5.40;;
80247;SDS011;69560;52.206;21.018;2023-06-14T10:39:16;7.90;;;4.90;;
80247;SDS011;69560;52.206;21.018;2023-06-14T10:41:53;6.80;;;5.10;;
80247;SDS011;69560;52.206;21.018;2023-06-14T10:50:31;8.30;;;5.00;;
80247;SDS011;69560;52.206;21.018;2023-06-14T10:56:38;7.60;;;5.00;;
80247;SDS011;69560;52.206;21.018;2023-06-14T10:59:47;10.20;;;5.00;;
80247;SDS011;69560;52.206;21.018;2023-06-14T11:05:23;6.50;;;4.70;;
80247;SDS011;69560;52.206;21.018;2023-06-14T11:08:48;9.70;;;4.70;;
80247;SDS011;69560;52.206;21.018;2023-06-14T11:15:08;7.00;;;5.10;;
80247;SDS011;69560;52.206;21.018;2023-06-14T11:18:27;9.00;;;4.60;;
80247;SDS011;69560;52.206;21.018;2023-06-14T11:21:23;8.60;;;4.60;;
80247;SDS011;69560;52.206;21.018;2023-06-14T11:24:32;9.40;;;4.70;;
80247;SDS011;69560;52.206;21.018;2023-06-14T11:27:04;7.30;;;5.60;;
80247;SDS011;69560;52.206;21.018;2023-06-14T11:29:35;7.00;;;5.00;;
80247;SDS011;69560;52.206;21.018;2023-06-14T11:32:30;6.00;;;4.90;;
80247;SDS011;69560;52.206;21.018;2023-06-14T11:35:01;8.90;;;4.90;;
80247;SDS011;69560;52.206;21.018;2023-06-14T11:37:33;7.80;;;4.90;;
80247;SDS011;69560;52.206;21.018;2023-06-14T11:40:14;6.70;;;4.80;;
80247;SDS011;69560;52.206;21.018;2023-06-14T11:43:02;7.50;;;5.00;;
80247;SDS011;69560;52.206;21.018;2023-06-14T11:45:43;6.50;;;5.40;;
80247;SDS011;69560;52.206;21.018;2023-06-14T11:48:52;7.40;;;4.60;;
80247;SDS011;69560;52.206;21.018;2023-06-14T11:51:45;7.40;;;4.10;;
80247;SDS011;69560;52.206;21.018;2023-06-14T11:57:46;17.60;;;13.70;;
80247;SDS011;69560;52.206;21.018;2023-06-14T12:00:25;22.80;;;16.70;;
80247;SDS011;69560;52.206;21.018;2023-06-14T12:03:12;10.10;;;5.00;;
80247;SDS011;69560;52.206;21.018;2023-06-14T12:05:54;7.30;;;4.00;;
80247;SDS011;69560;52.206;21.018;2023-06-14T12:08:39;4.70;;;3.60;;
80247;SDS011;69560;52.206;21.018;2023-06-14T12:11:19;5.20;;;3.30;;
80247;SDS011;69560;52.206;21.018;2023-06-14T12:17:16;4.50;;;3.20;;
80247;SDS011;69560;52.206;21.018;2023-06-14T12:20:22;4.60;;;2.90;;
80247;SDS011;69560;52.206;21.018;2023-06-14T12:23:24;6.20;;;3.20;;
80247;SDS011;69560;52.206;21.018;2023-06-14T12:26:28;10.10;;;5.30;;
80247;SDS011;69560;52.206;21.018;2023-06-14T12:29:24;6.40;;;3.10;;
80247;SDS011;69560;52.206;21.018;2023-06-14T12:32:24;6.60;;;2.90;;
80247;SDS011;69560;52.206;21.018;2023-06-14T12:35:17;6.70;;;2.70;;
80247;SDS011;69560;52.206;21.018;2023-06-14T12:37:59;4.70;;;2.90;;
80247;SDS011;69560;52.206;21.018;2023-06-14T12:40:36;4.30;;;2.60;;
80247;SDS011;69560;52.206;21.018;2023-06-14T12:46:27;5.70;;;2.90;;
80247;SDS011;69560;52.206;21.018;2023-06-14T12:49:27;6.70;;;3.10;;
80247;SDS011;69560;52.206;21.018;2023-06-14T12:52:05;5.10;;;3.20;;
80247;SDS011;69560;52.206;21.018;2023-06-14T12:55:05;3.90;;;2.60;;
80247;SDS011;69560;52.206;21.018;2023-06-14T13:00:51;9.90;;;3.20;;
80247;SDS011;69560;52.206;21.018;2023-06-14T13:03:24;6.30;;;2.70;;
80247;SDS011;69560;52.206;21.018;2023-06-14T13:05:56;6.50;;;2.90;;
80247;SDS011;69560;52.206;21.018;2023-06-14T13:08:32;8.20;;;2.50;;
80247;SDS011;69560;52.206;21.018;2023-06-14T13:11:25;3.70;;;2.60;;
80247;SDS011;69560;52.206;21.018;2023-06-14T13:16:54;3.20;;;2.20;;
80247;SDS011;69560;52.206;21.018;2023-06-14T13:19:26;5.00;;;2.30;;
80247;SDS011;69560;52.206;21.018;2023-06-14T13:21:59;3.80;;;2.50;;
80247;SDS011;69560;52.206;21.018;2023-06-14T13:24:28;3.20;;;2.50;;
80247;SDS011;69560;52.206;21.018;2023-06-14T13:27:18;6.40;;;2.10;;
80247;SDS011;69560;52.206;21.018;2023-06-14T13:29:59;4.10;;;2.50;;
80247;SDS011;69560;52.206;21.018;2023-06-14T13:32:51;5.90;;;2.70;;
80247;SDS011;69560;52.206;21.018;2023-06-14T13:35:38;4.60;;;2.40;;
80247;SDS011;69560;52.206;21.018;2023-06-14T13:38:07;4.90;;;2.60;;
80247;SDS011;69560;52.206;21.018;2023-06-14T13:40:41;4.20;;;2.70;;
80247;SDS011;69560;52.206;21.018;2023-06-14T13:46:45;3.30;;;1.90;;
80247;SDS011;69560;52.206;21.018;2023-06-14T13:49:51;3.60;;;2.40;;
80247;SDS011;69560;52.206;21.018;2023-06-14T13:52:36;4.10;;;2.40;;
80247;SDS011;69560;52.206;21.018;2023-06-14T13:55:11;5.80;;;2.80;;
80247;SDS011;69560;52.206;21.018;2023-06-14T13:57:59;3.50;;;2.70;;
80247;SDS011;69560;52.206;21.018;2023-06-14T14:03:31;4.30;;;2.80;;
80247;SDS011;69560;52.206;21.018;2023-06-14T14:06:03;4.70;;;2.70;;
80247;SDS011;69560;52.206;21.018;2023-06-14T14:08:33;3.70;;;2.70;;
80247;SDS011;69560;52.206;21.018;2023-06-14T14:11:14;3.60;;;2.90;;
80247;SDS011;69560;52.206;21.018;2023-06-14T14:16:28;3.80;;;2.80;;
80247;SDS011;69560;52.206;21.018;2023-06-14T14:19:02;6.10;;;3.60;;
80247;SDS011;69560;52.206;21.018;2023-06-14T14:21:39;5.10;;;2.90;;
80247;SDS011;69560;52.206;21.018;2023-06-14T14:27:09;3.60;;;2.90;;
80247;SDS011;69560;52.206;21.018;2023-06-14T14:32:35;3.40;;;2.70;;
80247;SDS011;69560;52.206;21.018;2023-06-14T14:35:26;5.30;;;3.40;;
80247;SDS011;69560;52.206;21.018;2023-06-14T14:38:21;3.20;;;2.50;;
80247;SDS011;69560;52.206;21.018;2023-06-14T14:41:21;3.80;;;3.10;;
80247;SDS011;69560;52.206;21.018;2023-06-14T14:44:01;5.20;;;2.90;;
80247;SDS011;69560;52.206;21.018;2023-06-14T14:50:36;9.80;;;3.20;;
80247;SDS011;69560;52.206;21.018;2023-06-14T14:55:54;4.40;;;3.50;;
80247;SDS011;69560;52.206;21.018;2023-06-14T14:58:45;3.20;;;2.80;;
80247;SDS011;69560;52.206;21.018;2023-06-14T15:07:54;4.00;;;3.40;;
80247;SDS011;69560;52.206;21.018;2023-06-14T15:10:46;4.20;;;3.10;;
80247;SDS011;69560;52.206;21.018;2023-06-14T15:13:28;4.30;;;2.90;;
80247;SDS011;69560;52.206;21.018;2023-06-14T15:16:03;5.00;;;2.70;;
80247;SDS011;69560;52.206;21.018;2023-06-14T15:24:44;3.30;;;3.00;;
80247;SDS011;69560;52.206;21.018;2023-06-14T15:27:37;3.20;;;2.70;;
80247;SDS011;69560;52.206;21.018;2023-06-14T15:30:04;2.80;;;2.50;;
80247;SDS011;69560;52.206;21.018;2023-06-14T15:32:41;4.50;;;2.70;;
80247;SDS011;69560;52.206;21.018;2023-06-14T15:35:20;5.70;;;3.00;;
80247;SDS011;69560;52.206;21.018;2023-06-14T15:38:01;7.20;;;2.70;;
80247;SDS011;69560;52.206;21.018;2023-06-14T15:40:53;5.60;;;2.80;;
80247;SDS011;69560;52.206;21.018;2023-06-14T15:43:40;4.90;;;2.70;;
80247;SDS011;69560;52.206;21.018;2023-06-14T15:46:53;3.20;;;2.40;;
80247;SDS011;69560;52.206;21.018;2023-06-14T15:49:33;7.10;;;4.80;;
80247;SDS011;69560;52.206;21.018;2023-06-14T15:55:27;5.90;;;3.80;;
80247;SDS011;69560;52.206;21.018;2023-06-14T15:58:20;4.90;;;3.10;;
80247;SDS011;69560;52.206;21.018;2023-06-14T16:00:52;9.00;;;3.90;;
80247;SDS011;69560;52.206;21.018;2023-06-14T16:03:38;11.80;;;4.30;;
80247;SDS011;69560;52.206;21.018;2023-06-14T16:09:19;4.30;;;3.50;;
80247;SDS011;69560;52.206;21.018;2023-06-14T16:14:44;8.30;;;3.70;;
80247;SDS011;69560;52.206;21.018;2023-06-14T16:17:19;6.50;;;4.00;;
80247;SDS011;69560;52.206;21.018;2023-06-14T16:23:49;5.20;;;4.50;;
80247;SDS011;69560;52.206;21.018;2023-06-14T16:26:43;25.80;;;21.40;;
80247;SDS011;69560;52.206;21.018;2023-06-14T16:32:39;7.20;;;6.40;;
80247;SDS011;69560;52.206;21.018;2023-06-14T16:35:25;6.70;;;5.60;;
80247;SDS011;69560;52.206;21.018;2023-06-14T16:38:05;8.90;;;6.00;;
80247;SDS011;69560;52.206;21.018;2023-06-14T16:40:52;9.00;;;5.70;;
80247;SDS011;69560;52.206;21.018;2023-06-14T16:43:29;8.70;;;5.10;;
80247;SDS011;69560;52.206;21.018;2023-06-14T16:46:00;12.60;;;5.20;;
80247;SDS011;69560;52.206;21.018;2023-06-14T16:48:37;10.60;;;5.60;;
80247;SDS011;69560;52.206;21.018;2023-06-14T16:54:08;13.60;;;4.90;;
80247;SDS011;69560;52.206;21.018;2023-06-14T16:56:40;9.90;;;5.30;;
80247;SDS011;69560;52.206;21.018;2023-06-14T16:59:20;6.20;;;5.30;;
80247;SDS011;69560;52.206;21.018;2023-06-14T17:04:56;6.70;;;5.00;;
80247;SDS011;69560;52.206;21.018;2023-06-14T17:07:46;8.40;;;5.20;;
80247;SDS011;69560;52.206;21.018;2023-06-14T17:11:02;9.50;;;5.10;;
80247;SDS011;69560;52.206;21.018;2023-06-14T17:13:59;7.20;;;5.40;;
80247;SDS011;69560;52.206;21.018;2023-06-14T17:19:55;7.80;;;4.90;;
80247;SDS011;69560;52.206;21.018;2023-06-14T17:26:14;7.40;;;5.10;;
80247;SDS011;69560;52.206;21.018;2023-06-14T17:28:43;9.30;;;5.60;;
80247;SDS011;69560;52.206;21.018;2023-06-14T17:31:27;9.20;;;5.40;;
80247;SDS011;69560;52.206;21.018;2023-06-14T17:34:16;7.10;;;5.30;;
80247;SDS011;69560;52.206;21.018;2023-06-14T17:37:15;6.60;;;5.90;;
80247;SDS011;69560;52.206;21.018;2023-06-14T17:43:28;9.10;;;5.40;;
80247;SDS011;69560;52.206;21.018;2023-06-14T17:52:54;6.70;;;5.30;;
80247;SDS011;69560;52.206;21.018;2023-06-14T17:55:42;9.10;;;5.60;;
80247;SDS011;69560;52.206;21.018;2023-06-14T18:01:42;7.00;;;5.40;;
80247;SDS011;69560;52.206;21.018;2023-06-14T18:04:26;6.30;;;5.60;;
80247;SDS011;69560;52.206;21.018;2023-06-14T18:07:32;8.70;;;5.70;;
80247;SDS011;69560;52.206;21.018;2023-06-14T18:10:15;12.20;;;8.40;;
80247;SDS011;69560;52.206;21.018;2023-06-14T18:13:17;13.40;;;6.70;;
80247;SDS011;69560;52.206;21.018;2023-06-14T18:16:02;10.30;;;7.70;;
80247;SDS011;69560;52.206;21.018;2023-06-14T18:19:06;10.90;;;6.80;;
80247;SDS011;69560;52.206;21.018;2023-06-14T18:22:06;9.70;;;7.10;;
80247;SDS011;69560;52.206;21.018;2023-06-14T18:28:03;16.30;;;9.70;;
80247;SDS011;69560;52.206;21.018;2023-06-14T18:31:01;17.70;;;13.60;;
80247;SDS011;69560;52.206;21.018;2023-06-14T18:33:38;20.40;;;12.30;;
80247;SDS011;69560;52.206;21.018;2023-06-14T18:36:39;10.90;;;7.20;;
80247;SDS011;69560;52.206;21.018;2023-06-14T18:39:32;13.30;;;7.50;;
80247;SDS011;69560;52.206;21.018;2023-06-14T18:42:08;11.50;;;6.70;;
80247;SDS011;69560;52.206;21.018;2023-06-14T18:48:35;8.70;;;5.60;;
80247;SDS011;69560;52.206;21.018;2023-06-14T18:51:15;11.60;;;6.50;;
80247;SDS011;69560;52.206;21.018;2023-06-14T18:53:45;6.60;;;5.90;;
80247;SDS011;69560;52.206;21.018;2023-06-14T18:56:37;9.30;;;6.30;;
80247;SDS011;69560;52.206;21.018;2023-06-14T18:59:32;7.60;;;6.10;;
80247;SDS011;69560;52.206;21.018;2023-06-14T19:02:22;9.30;;;5.90;;
80247;SDS011;69560;52.206;21.018;2023-06-14T19:05:34;7.60;;;6.00;;
80247;SDS011;69560;52.206;21.018;2023-06-14T19:08:34;8.90;;;6.20;;
80247;SDS011;69560;52.206;21.018;2023-06-14T19:11:20;7.60;;;6.40;;
80247;SDS011;69560;52.206;21.018;2023-06-14T19:13:51;9.40;;;5.80;;
80247;SDS011;69560;52.206;21.018;2023-06-14T19:22:09;10.40;;;6.50;;
80247;SDS011;69560;52.206;21.018;2023-06-14T19:25:16;9.10;;;6.00;;
80247;SDS011;69560;52.206;21.018;2023-06-14T19:28:08;8.90;;;6.10;;
80247;SDS011;69560;52.206;21.018;2023-06-14T19:31:11;8.20;;;6.10;;
80247;SDS011;69560;52.206;21.018;2023-06-14T19:34:00;12.10;;;6.40;;
80247;SDS011;69560;52.206;21.018;2023-06-14T19:36:53;8.80;;;6.20;;
80247;SDS011;69560;52.206;21.018;2023-06-14T19:39:37;12.50;;;6.00;;
80247;SDS011;69560;52.206;21.018;2023-06-14T19:45:31;6.70;;;6.00;;
80247;SDS011;69560;52.206;21.018;2023-06-14T19:48:31;7.10;;;5.80;;
80247;SDS011;69560;52.206;21.018;2023-06-14T19:53:58;11.60;;;7.20;;
80247;SDS011;69560;52.206;21.018;2023-06-14T19:56:42;8.20;;;6.60;;
80247;SDS011;69560;52.206;21.018;2023-06-14T19:59:13;11.60;;;6.00;;
80247;SDS011;69560;52.206;21.018;2023-06-14T20:01:51;9.50;;;6.30;;
80247;SDS011;69560;52.206;21.018;2023-06-14T20:04:25;10.50;;;5.40;;
80247;SDS011;69560;52.206;21.018;2023-06-14T20:07:18;6.50;;;5.70;;
80247;SDS011;69560;52.206;21.018;2023-06-14T20:09:58;11.50;;;5.80;;
80247;SDS011;69560;52.206;21.018;2023-06-14T20:12:39;7.60;;;6.10;;
80247;SDS011;69560;52.206;21.018;2023-06-14T20:15:41;9.20;;;6.40;;
80247;SDS011;69560;52.206;21.018;2023-06-14T20:18:14;16.30;;;14.60;;
80247;SDS011;69560;52.206;21.018;2023-06-14T20:20:45;89.20;;;79.90;;
80247;SDS011;69560;52.206;21.018;2023-06-14T20:23:19;75.50;;;67.20;;
80247;SDS011;69560;52.206;21.018;2023-06-14T20:28:49;15.20;;;12.30;;
80247;SDS011;69560;52.206;21.018;2023-06-14T20:31:28;9.20;;;7.70;;
80247;SDS011;69560;52.206;21.018;2023-06-14T20:34:18;10.60;;;6.50;;
80247;SDS011;69560;52.206;21.018;2023-06-14T20:36:48;7.90;;;6.80;;
80247;SDS011;69560;52.206;21.018;2023-06-14T20:39:24;8.50;;;7.00;;
80247;SDS011;69560;52.206;21.018;2023-06-14T20:41:52;10.10;;;6.40;;
80247;SDS011;69560;52.206;21.018;2023-06-14T20:44:41;9.40;;;6.70;;
80247;SDS011;69560;52.206;21.018;2023-06-14T20:47:33;10.50;;;8.00;;
80247;SDS011;69560;52.206;21.018;2023-06-14T20:50:02;8.80;;;7.70;;
80247;SDS011;69560;52.206;21.018;2023-06-14T20:52:34;9.00;;;7.50;;
80247;SDS011;69560;52.206;21.018;2023-06-14T20:55:07;11.20;;;7.60;;
80247;SDS011;69560;52.206;21.018;2023-06-14T20:57:37;8.30;;;7.40;;
80247;SDS011;69560;52.206;21.018;2023-06-14T21:00:27;9.20;;;8.00;;
80247;SDS011;69560;52.206;21.018;2023-06-14T21:05:53;8.90;;;8.00;;
80247;SDS011;69560;52.206;21.018;2023-06-14T21:08:42;9.30;;;7.80;;
80247;SDS011;69560;52.206;21.018;2023-06-14T21:11:24;11.50;;;8.00;;
80247;SDS011;69560;52.206;21.018;2023-06-14T21:16:47;9.10;;;8.10;;
80247;SDS011;69560;52.206;21.018;2023-06-14T21:19:48;13.20;;;8.30;;
80247;SDS011;69560;52.206;21.018;2023-06-14T21:22:47;11.70;;;7.70;;
80247;SDS011;69560;52.206;21.018;2023-06-14T21:25:18;10.40;;;8.20;;
80247;SDS011;69560;52.206;21.018;2023-06-14T21:27:54;13.60;;;8.30;;
80247;SDS011;69560;52.206;21.018;2023-06-14T21:30:41;11.20;;;7.80;;
80247;SDS011;69560;52.206;21.018;2023-06-14T21:33:44;12.20;;;7.70;;
80247;SDS011;69560;52.206;21.018;2023-06-14T21:36:38;12.00;;;7.70;;
80247;SDS011;69560;52.206;21.018;2023-06-14T21:39:27;9.60;;;7.00;;
80247;SDS011;69560;52.206;21.018;2023-06-14T21:42:09;8.70;;;7.30;;
80247;SDS011;69560;52.206;21.018;2023-06-14T21:45:12;10.70;;;7.70;;
80247;SDS011;69560;52.206;21.018;2023-06-14T21:48:11;9.60;;;7.60;;
80247;SDS011;69560;52.206;21.018;2023-06-14T21:50:53;12.00;;;7.70;;
80247;SDS011;69560;52.206;21.018;2023-06-14T21:53:23;12.10;;;7.60;;
80247;SDS011;69560;52.206;21.018;2023-06-14T22:03:05;9.40;;;7.50;;